Time;durP1;ratioP1;P1;durP2;ratioP2;P2;SDS_P1;SDS_P2;PMS_P1;PMS_P2;Temp;Humidity;BMP_temperature;BMP_pressure;BME280_temperature;BME280_humidity;BME280_pressure;Samples;Min_cycle;Max_cycle;Signal;HPM_P1;HPM_P2
2022/09/09 00:00:25;;;;;;;4.88;1.42;;;;;;;18.52;59.63;100717.75;4938728;28;123751;-80
2022/09/09 00:03:12;;;;;;;2.50;1.60;;;;;;;18.48;59.50;100715.31;4943475;28;115232;-81
2022/09/09 00:05:43;;;;;;;2.45;1.60;;;;;;;18.44;59.56;100719.22;4941118;28;113622;-79
2022/09/09 00:08:19;;;;;;;3.38;1.77;;;;;;;18.41;59.68;100707.88;4934493;28;123486;-80
2022/09/09 00:10:55;;;;;;;3.83;1.90;;;;;;;18.37;59.77;100707.28;4936778;28;123926;-81
2022/09/09 00:13:36;;;;;;;3.70;1.95;;;;;;;18.33;59.67;100711.19;4942208;28;114829;-80
2022/09/09 00:16:25;;;;;;;2.75;1.92;;;;;;;18.29;59.95;100715.09;4940826;28;114083;-79
2022/09/09 00:19:23;;;;;;;2.70;1.77;;;;;;;18.26;59.82;100704.59;4939726;28;123924;-81
2022/09/09 00:21:57;;;;;;;4.20;1.90;;;;;;;18.23;59.91;100710.19;4942203;28;124181;-81
2022/09/09 00:24:29;;;;;;;2.37;1.93;;;;;;;18.21;59.92;100706.78;4936544;28;113912;-81
2022/09/09 00:27:06;;;;;;;2.55;1.85;;;;;;;18.20;59.97;100702.41;4935287;28;113964;-80
2022/09/09 00:30:14;;;;;;;3.28;1.75;;;;;;;18.18;59.93;100701.69;4936675;28;123875;-81
2022/09/09 00:32:41;;;;;;;3.33;2.10;;;;;;;18.15;59.84;100701.91;4943866;28;123686;-81
2022/09/09 00:35:17;;;;;;;2.55;1.80;;;;;;;18.12;59.83;100702.16;4925168;28;113776;-80
2022/09/09 00:37:48;;;;;;;2.40;1.92;;;;;;;18.08;60.11;100705.09;4944338;28;112551;-80
2022/09/09 00:40:31;;;;;;;2.53;1.77;;;;;;;18.08;60.06;100701.53;4944189;28;124575;-81
2022/09/09 00:43:25;;;;;;;3.83;2.00;;;;;;;18.06;60.14;100701.69;4943761;28;122915;-80
2022/09/09 00:46:11;;;;;;;3.60;1.80;;;;;;;18.03;60.08;100699.25;4938356;28;114405;-80
2022/09/09 00:48:53;;;;;;;2.50;1.88;;;;;;;17.99;60.05;100695.09;4946025;28;114047;-81
2022/09/09 00:51:32;;;;;;;3.30;2.00;;;;;;;17.97;60.09;100697.06;4942868;28;125020;-80
2022/09/09 00:54:44;;;;;;;4.68;2.00;;;;;;;17.94;60.35;100699.97;4944125;28;124101;-81
2022/09/09 00:57:36;;;;;;;2.65;2.20;;;;;;;17.90;60.00;100693.13;4889309;28;115013;-80
2022/09/09 01:00:20;;;;;;;2.90;1.85;;;;;;;17.88;60.07;100695.94;4942187;28;115030;-81
2022/09/09 01:19:19;;;;;;;4.10;2.33;;;;;;;17.62;60.35;100676.50;4948602;28;124382;-81
2022/09/09 01:22:01;;;;;;;3.20;2.10;;;;;;;17.61;60.61;100671.25;4956587;28;123917;-79
2022/09/09 01:24:40;;;;;;;4.93;2.20;;;;;;;17.62;60.60;100668.47;4945240;28;113488;-81
2022/09/09 01:27:18;;;;;;;6.75;2.20;;;;;;;17.62;60.76;100673.81;4940275;28;114169;-80
2022/09/09 01:29:45;;;;;;;4.57;2.10;;;;;;;17.64;60.88;100661.16;4949236;28;123186;-81
2022/09/09 01:32:40;;;;;;;6.35;2.15;;;;;;;17.65;60.90;100678.94;4947156;28;123927;-80
2022/09/09 01:35:14;;;;;;;4.15;2.05;;;;;;;17.67;60.97;100676.16;4936629;28;113499;-79
2022/09/09 01:37:41;;;;;;;5.00;2.40;;;;;;;17.68;60.71;100678.69;4940062;28;113806;-81
2022/09/09 01:40:09;;;;;;;3.38;2.00;;;;;;;17.70;60.98;100676.75;4940552;28;125034;-81
2022/09/09 01:42:37;;;;;;;4.40;2.08;;;;;;;17.71;61.11;100673.09;4944462;28;123725;-81
2022/09/09 01:45:05;;;;;;;3.88;2.17;;;;;;;17.74;61.16;100665.81;4948475;28;114610;-79
2022/09/09 01:47:32;;;;;;;3.33;2.30;;;;;;;17.76;61.08;100674.56;4939933;28;114243;-80
2022/09/09 01:50:31;;;;;;;5.45;2.17;;;;;;;17.77;61.24;100670.94;4931932;28;125097;-82
2022/09/09 01:53:01;;;;;;;4.32;2.13;;;;;;;17.78;61.12;100677.97;4934244;28;125100;-81
2022/09/09 01:55:40;;;;;;;6.50;2.25;;;;;;;17.78;60.96;100661.91;4957527;28;115503;-79
2022/09/09 01:58:41;;;;;;;4.25;2.22;;;;;;;17.78;61.07;100667.25;4939682;28;114235;-81
2022/09/09 02:01:22;;;;;;;6.32;2.17;;;;;;;17.78;61.28;100672.63;4939860;28;123595;-80
2022/09/09 02:03:57;;;;;;;3.10;2.17;;;;;;;17.78;61.24;100667.25;4971639;28;122279;-79
2022/09/09 02:06:35;;;;;;;2.90;2.08;;;;;;;17.77;61.19;100660.22;4968748;28;115079;-79
2022/09/09 02:09:22;;;;;;;2.63;2.10;;;;;;;17.77;61.19;100657.53;4943828;28;112645;-79
2022/09/09 02:11:59;;;;;;;5.43;2.40;;;;;;;17.78;61.25;100662.78;4945476;28;126977;-79
2022/09/09 02:14:42;;;;;;;4.40;2.33;;;;;;;17.78;61.46;100661.91;4946762;28;121922;-80
2022/09/09 02:17:13;;;;;;;3.72;2.40;;;;;;;17.78;61.37;100656.53;4960682;28;113824;-80
2022/09/09 02:20:02;;;;;;;5.53;2.38;;;;;;;17.78;61.44;100652.06;4944312;28;113360;-80
2022/09/09 02:22:44;;;;;;;4.93;2.30;;;;;;;17.79;61.31;100653.75;4950529;28;123631;-81
2022/09/09 02:25:16;;;;;;;6.40;2.30;;;;;;;17.80;61.42;100649.22;4944223;28;126108;-82
2022/09/09 02:27:47;;;;;;;4.15;2.35;;;;;;;17.81;61.54;100653.63;4920670;28;114104;-80
2022/09/09 02:30:15;;;;;;;3.25;2.33;;;;;;;17.80;61.42;100652.78;4936032;28;113412;-81
2022/09/09 02:32:52;;;;;;;3.72;2.38;;;;;;;17.80;61.36;100649.22;4940871;28;123007;-81
2022/09/09 02:35:24;;;;;;;7.63;2.53;;;;;;;17.79;61.46;100647.56;4939291;28;124598;-82
2022/09/09 02:37:54;;;;;;;4.93;2.20;;;;;;;17.78;61.37;100645.81;4953427;28;113386;-79
2022/09/09 02:40:23;;;;;;;5.07;2.40;;;;;;;17.75;61.46;100646.09;4924439;28;115199;-81
2022/09/09 02:42:58;;;;;;;4.68;2.30;;;;;;;17.74;61.33;100649.72;4936244;28;123458;-82
2022/09/09 02:45:35;;;;;;;4.32;2.55;;;;;;;17.73;61.45;100640.00;4957591;28;123405;-79
2022/09/09 02:48:32;;;;;;;4.93;2.70;;;;;;;17.71;61.51;100646.31;4927027;28;115020;-81
2022/09/09 02:51:14;;;;;;;4.82;2.63;;;;;;;17.71;61.60;100646.31;4929250;28;113849;-79
2022/09/09 02:53:56;;;;;;;7.07;2.65;;;;;;;17.70;61.42;100649.94;4960116;28;123381;-81
2022/09/09 02:56:28;;;;;;;4.57;2.88;;;;;;;17.70;61.58;100652.63;4968793;28;124491;-81
2022/09/09 02:58:55;;;;;;;6.68;2.58;;;;;;;17.72;61.57;100657.88;4963658;28;113902;-81
2022/09/09 03:01:23;;;;;;;6.90;2.40;;;;;;;17.72;61.62;100652.53;4940419;28;115925;-79
2022/09/09 03:03:50;;;;;;;6.88;2.58;;;;;;;17.74;61.61;100655.09;4953564;28;125409;-79
2022/09/09 03:06:17;;;;;;;5.82;2.65;;;;;;;17.74;61.79;100655.09;4958792;28;123226;-80
2022/09/09 03:08:50;;;;;;;6.40;2.70;;;;;;;17.73;61.59;100653.41;4966067;28;116015;-79
2022/09/09 03:11:22;;;;;;;5.78;2.80;;;;;;;17.73;61.76;100658.75;4970098;28;114090;-78
2022/09/09 03:13:49;;;;;;;7.00;2.38;;;;;;;17.73;61.82;100653.41;4954566;28;124126;-80
2022/09/09 03:16:17;;;;;;;6.25;2.80;;;;;;;17.73;61.76;100650.72;4945767;28;124904;-80
2022/09/09 03:18:47;;;;;;;7.95;2.83;;;;;;;17.73;61.71;100664.13;4945662;28;114619;-80
2022/09/09 03:21:15;;;;;;;4.70;2.60;;;;;;;17.73;61.91;100653.41;4943979;28;113215;-79
2022/09/09 03:23:44;;;;;;;5.60;2.58;;;;;;;17.74;61.98;100652.41;4944453;28;121902;-80
2022/09/09 03:26:14;;;;;;;4.93;2.90;;;;;;;17.75;62.00;100654.13;4954717;28;123424;-80
2022/09/09 03:28:45;;;;;;;6.93;2.40;;;;;;;17.77;62.01;100654.84;4954821;28;113276;-79
2022/09/09 03:31:15;;;;;;;4.78;2.55;;;;;;;17.79;62.09;100658.25;4945240;28;115016;-78
2022/09/09 03:33:42;;;;;;;6.35;2.70;;;;;;;17.80;62.10;100654.59;4943927;28;124527;-79
2022/09/09 03:36:12;;;;;;;6.50;2.53;;;;;;;17.82;62.06;100652.66;4940537;28;123176;-80
2022/09/09 03:38:39;;;;;;;6.38;2.45;;;;;;;17.84;61.97;100661.44;4958389;28;114251;-78
2022/09/09 03:41:07;;;;;;;5.88;2.95;;;;;;;17.84;62.16;100662.31;4941365;28;115763;-80
2022/09/09 03:43:36;;;;;;;4.25;2.55;;;;;;;17.85;62.21;100663.16;4943898;28;124069;-79
2022/09/09 03:46:03;;;;;;;6.47;2.95;;;;;;;17.87;62.47;100666.56;4937192;28;124709;-80
2022/09/09 03:48:31;;;;;;;6.75;2.83;;;;;;;17.89;62.31;100669.97;4936738;28;113335;-80
2022/09/09 03:51:01;;;;;;;6.75;2.80;;;;;;;17.91;62.46;100662.66;4937668;28;113263;-78
2022/09/09 03:53:29;;;;;;;6.32;2.50;;;;;;;17.95;62.42;100668.66;4944814;28;124928;-80
2022/09/09 03:55:59;;;;;;;7.65;2.70;;;;;;;17.97;62.34;100667.56;4922970;28;123375;-79
2022/09/09 03:58:28;;;;;;;8.23;2.60;;;;;;;18.01;62.34;100668.19;4947788;28;113546;-80
2022/09/09 04:01:08;;;;;;;4.30;2.75;;;;;;;18.01;62.62;100658.31;4953801;28;113694;-80
2022/09/09 04:03:36;;;;;;;7.55;2.75;;;;;;;18.04;62.50;100663.41;4942481;28;123737;-80
2022/09/09 04:06:06;;;;;;;8.27;2.90;;;;;;;18.06;62.47;100666.84;4938392;28;123105;-79
2022/09/09 04:08:35;;;;;;;5.93;2.90;;;;;;;18.07;62.51;100665.84;4939418;28;115107;-80
2022/09/09 04:11:05;;;;;;;5.75;2.38;;;;;;;18.11;62.48;100662.94;4941416;28;114038;-81
2022/09/09 04:13:35;;;;;;;4.60;2.60;;;;;;;18.13;62.52;100666.34;4957048;28;122350;-81
2022/09/09 04:16:03;;;;;;;6.55;2.60;;;;;;;18.13;62.57;100655.63;4940970;28;123732;-80
2022/09/09 04:18:34;;;;;;;5.95;2.72;;;;;;;18.15;62.64;100654.50;4946054;28;113530;-81
2022/09/09 04:21:03;;;;;;;7.25;2.90;;;;;;;18.17;62.71;100654.41;4947653;28;113898;-80
2022/09/09 04:23:33;;;;;;;7.90;2.78;;;;;;;18.20;62.70;100643.44;4941549;28;122986;-79
2022/09/09 04:26:02;;;;;;;6.22;2.80;;;;;;;18.21;62.83;100642.44;4932425;28;126034;-80
2022/09/09 04:28:34;;;;;;;7.35;2.78;;;;;;;18.22;62.50;100641.50;4926732;28;116395;-81
2022/09/09 04:31:10;;;;;;;6.82;2.88;;;;;;;18.23;63.00;100640.50;4945736;28;115445;-81
2022/09/09 04:33:40;;;;;;;14.82;2.83;;;;;;;18.25;62.76;100643.91;4946585;28;123898;-79
2022/09/09 04:36:08;;;;;;;6.22;2.78;;;;;;;18.29;62.96;100645.38;4943324;28;122309;-80
2022/09/09 04:38:36;;;;;;;9.73;2.85;;;;;;;18.32;62.99;100642.44;4946895;28;114347;-81
2022/09/09 04:41:05;;;;;;;5.43;2.47;;;;;;;18.33;62.98;100630.75;4948283;28;114030;-81
2022/09/09 04:43:34;;;;;;;8.35;2.78;;;;;;;18.35;62.83;100634.16;4949296;28;123621;-80
2022/09/09 04:46:05;;;;;;;8.57;2.70;;;;;;;18.36;62.91;100635.84;4946617;28;123467;-81
2022/09/09 04:48:32;;;;;;;3.90;2.35;;;;;;;18.37;62.96;100639.41;4959729;28;113408;-81
2022/09/09 04:51:04;;;;;;;7.32;2.97;;;;;;;18.39;63.12;100635.59;4944094;28;113124;-79
2022/09/09 04:53:35;;;;;;;4.53;2.38;;;;;;;18.41;62.85;100633.66;4942539;28;123715;-79
2022/09/09 04:56:04;;;;;;;9.68;2.90;;;;;;;18.43;62.99;100631.69;4948783;28;121991;-80
2022/09/09 04:58:36;;;;;;;7.78;2.67;;;;;;;18.45;63.14;100626.22;4948182;28;113661;-80
2022/09/09 05:01:12;;;;;;;8.35;2.72;;;;;;;18.47;63.01;100624.25;4932419;28;113634;-79
2022/09/09 05:03:44;;;;;;;5.97;2.78;;;;;;;18.49;63.00;100624.97;4945257;28;122327;-81
2022/09/09 05:06:16;;;;;;;6.07;2.60;;;;;;;18.48;63.14;100613.41;4944718;28;122963;-81
2022/09/09 05:08:45;;;;;;;7.05;2.47;;;;;;;18.51;63.04;100622.16;4943228;28;113489;-81
2022/09/09 05:11:24;;;;;;;6.32;2.53;;;;;;;18.51;63.07;100622.16;4946150;28;113475;-79
2022/09/09 05:13:54;;;;;;;7.18;2.88;;;;;;;18.53;62.91;100625.56;4953243;28;123686;-79
2022/09/09 05:16:22;;;;;;;8.02;2.80;;;;;;;18.54;62.82;100628.13;4961520;28;123330;-80
2022/09/09 05:18:53;;;;;;;4.50;2.40;;;;;;;18.56;62.99;100626.19;4940139;28;114899;-81
2022/09/09 05:21:22;;;;;;;4.72;2.60;;;;;;;18.57;63.02;100627.03;4939688;28;114565;-81
2022/09/09 05:23:51;;;;;;;5.63;2.33;;;;;;;18.59;62.93;100627.75;4926017;28;122372;-80
2022/09/09 05:26:21;;;;;;;7.82;2.38;;;;;;;18.60;62.92;100626.78;4939836;28;123466;-81
2022/09/09 05:28:51;;;;;;;7.38;2.25;;;;;;;18.61;63.02;100629.34;4937145;28;113397;-80
2022/09/09 05:31:19;;;;;;;6.25;2.40;;;;;;;18.61;62.99;100623.09;4963793;28;112626;-79
2022/09/09 05:33:50;;;;;;;7.70;2.28;;;;;;;18.62;62.92;100619.47;4947287;28;122312;-80
2022/09/09 05:36:20;;;;;;;8.68;2.30;;;;;;;18.64;62.94;100628.22;4941412;28;123389;-80
2022/09/09 05:38:50;;;;;;;7.18;2.50;;;;;;;18.64;62.95;100623.72;4944532;28;114020;-80
2022/09/09 05:41:19;;;;;;;7.15;2.25;;;;;;;18.66;63.13;100620.91;4959195;28;113336;-81
2022/09/09 05:43:48;;;;;;;6.53;2.60;;;;;;;18.69;63.06;100626.03;4950398;28;124833;-81
2022/09/09 05:46:19;;;;;;;7.75;2.50;;;;;;;18.70;63.04;100626.88;4938210;28;123586;-80
2022/09/09 05:48:52;;;;;;;5.22;2.22;;;;;;;18.73;62.96;100615.91;4930235;28;113738;-79
2022/09/09 05:51:23;;;;;;;10.25;2.60;;;;;;;18.74;63.07;100618.47;4940480;28;113000;-80
2022/09/09 05:53:51;;;;;;;5.18;2.13;;;;;;;18.77;63.08;100623.53;4943089;28;124097;-82
2022/09/09 05:56:22;;;;;;;6.82;2.70;;;;;;;18.78;62.94;100629.75;4943978;28;123574;-82
2022/09/09 05:58:49;;;;;;;7.38;2.30;;;;;;;18.79;63.23;100626.94;4939060;28;115324;-81
2022/09/09 06:01:21;;;;;;;11.80;2.30;;;;;;;18.81;62.75;100630.38;4941183;28;112930;-82
2022/09/09 06:03:49;;;;;;;7.28;2.40;;;;;;;18.83;62.91;100623.06;4927421;28;123730;-82
2022/09/09 06:06:22;;;;;;;6.22;2.47;;;;;;;18.84;62.84;100635.50;4954197;28;124357;-82
2022/09/09 06:08:52;;;;;;;6.38;2.17;;;;;;;18.84;62.81;100627.47;4937394;28;114632;-82
2022/09/09 06:11:26;;;;;;;7.05;2.60;;;;;;;18.85;62.97;100631.00;4945922;28;115198;-81
2022/09/09 06:13:54;;;;;;;9.73;2.58;;;;;;;18.86;62.88;100638.91;4940615;28;124050;-82
2022/09/09 06:16:23;;;;;;;8.52;2.33;;;;;;;18.88;62.94;100641.47;4940182;28;123924;-82
2022/09/09 06:18:51;;;;;;;6.35;2.35;;;;;;;18.90;62.50;100633.31;4953352;28;114590;-81
2022/09/09 06:21:21;;;;;;;7.80;2.35;;;;;;;18.90;62.89;100627.94;4940582;28;113758;-82
2022/09/09 06:23:50;;;;;;;8.38;2.55;;;;;;;18.93;63.02;100646.44;4944615;28;125749;-81
2022/09/09 06:26:25;;;;;;;7.65;2.78;;;;;;;18.97;63.28;100639.88;4942247;28;122580;-80
2022/09/09 06:28:54;;;;;;;6.93;2.42;;;;;;;19.03;62.87;100639.34;4954013;28;113979;-82
2022/09/09 06:31:24;;;;;;;10.02;2.85;;;;;;;19.08;63.05;100647.88;4934344;28;113969;-82
2022/09/09 06:33:58;;;;;;;5.70;2.10;;;;;;;19.12;62.97;100638.56;4937624;28;123348;-81
2022/09/09 06:36:28;;;;;;;7.47;2.40;;;;;;;19.20;63.16;100641.44;4949480;28;124884;-82
2022/09/09 06:38:56;;;;;;;8.82;2.33;;;;;;;19.25;63.13;100639.22;4953009;28;115231;-80
2022/09/09 06:41:29;;;;;;;8.57;2.60;;;;;;;19.34;63.25;100626.00;4947379;28;112793;-80
2022/09/09 06:43:56;;;;;;;9.05;2.50;;;;;;;19.41;63.39;100628.03;4946113;28;124168;-78
2022/09/09 06:46:32;;;;;;;8.32;2.33;;;;;;;19.52;63.11;100629.78;4950028;28;123007;-82
2022/09/09 06:49:01;;;;;;;10.05;2.90;;;;;;;19.62;63.01;100630.69;4944050;28;112309;-80
2022/09/09 06:51:34;;;;;;;6.50;2.40;;;;;;;19.72;62.92;100635.25;4949301;28;114311;-80
2022/09/09 06:54:04;;;;;;;9.23;2.53;;;;;;;19.81;62.76;100623.75;4930819;28;122794;-80
2022/09/09 06:56:37;;;;;;;8.40;2.50;;;;;;;19.92;62.65;100631.72;4945317;28;122080;-80
2022/09/09 06:59:10;;;;;;;7.65;2.38;;;;;;;20.01;62.50;100630.91;4945044;28;114477;-81
2022/09/09 07:01:43;;;;;;;7.03;2.63;;;;;;;20.07;62.09;100636.75;4950379;28;114089;-79
2022/09/09 07:04:13;;;;;;;7.68;2.40;;;;;;;20.09;61.78;100637.44;4940826;28;123752;-81
2022/09/09 07:06:45;;;;;;;6.95;2.53;;;;;;;20.08;61.67;100635.72;4940818;28;124731;-80
2022/09/09 07:09:17;;;;;;;7.55;2.50;;;;;;;20.13;61.72;100633.50;4956003;28;113989;-82
2022/09/09 07:11:50;;;;;;;10.30;2.70;;;;;;;20.19;61.91;100638.31;4940480;28;117165;-81
2022/09/09 07:14:19;;;;;;;6.55;2.60;;;;;;;20.27;61.59;100630.44;4956005;28;123194;-81
2022/09/09 07:16:50;;;;;;;8.05;2.67;;;;;;;20.31;61.25;100626.47;4919003;28;123222;-81
2022/09/09 07:19:20;;;;;;;7.28;2.50;;;;;;;20.32;61.08;100622.78;4940658;28;113702;-81
2022/09/09 07:21:51;;;;;;;9.00;2.55;;;;;;;20.35;61.17;100625.22;4941557;28;113571;-81
2022/09/09 07:24:20;;;;;;;6.45;2.08;;;;;;;20.41;61.26;100632.72;4959232;28;123576;-80
2022/09/09 07:26:48;;;;;;;7.28;2.35;;;;;;;20.53;61.38;100627.22;4940193;28;122996;-81
2022/09/09 07:29:17;;;;;;;7.63;2.60;;;;;;;20.63;61.21;100620.06;4929892;28;114250;-81
2022/09/09 07:31:48;;;;;;;10.73;2.80;;;;;;;20.75;61.33;100624.31;4931211;28;114256;-80
2022/09/09 07:34:20;;;;;;;8.57;2.40;;;;;;;20.83;60.74;100630.84;4936073;28;124193;-80
2022/09/09 07:36:51;;;;;;;7.78;2.75;;;;;;;20.83;60.49;100625.44;4934430;28;124282;-81
2022/09/09 07:39:19;;;;;;;9.88;2.47;;;;;;;20.84;60.20;100632.53;4932638;28;113608;-79
2022/09/09 07:41:50;;;;;;;8.63;2.40;;;;;;;20.83;60.20;100630.84;4939196;28;113645;-80
2022/09/09 07:44:24;;;;;;;7.00;2.40;;;;;;;20.83;60.10;100638.91;4921396;28;124190;-81
2022/09/09 07:46:59;;;;;;;5.20;2.03;;;;;;;20.82;59.70;100629.16;4953247;28;123075;-80
2022/09/09 07:49:34;;;;;;;5.82;2.17;;;;;;;20.82;59.82;100634.53;4920950;28;114938;-81
2022/09/09 07:52:03;;;;;;;7.72;2.30;;;;;;;20.80;59.67;100638.19;4938574;28;114663;-81
2022/09/09 07:54:32;;;;;;;7.50;2.10;;;;;;;20.83;59.74;100636.22;4939936;28;123252;-81
2022/09/09 07:57:03;;;;;;;4.85;2.10;;;;;;;20.87;59.85;100632.25;4933023;28;124742;-80
2022/09/09 07:59:33;;;;;;;8.30;2.13;;;;;;;20.96;59.83;100631.41;4942648;28;114417;-81
2022/09/09 08:02:01;;;;;;;8.48;2.33;;;;;;;21.08;59.92;100630.28;4936217;28;113244;-81
2022/09/09 08:04:31;;;;;;;8.07;1.80;;;;;;;21.19;59.88;100627.44;4941745;28;123828;-80
2022/09/09 08:07:00;;;;;;;9.10;2.10;;;;;;;21.35;60.04;100636.75;4955550;28;123389;-80
2022/09/09 08:09:32;;;;;;;8.32;2.03;;;;;;;21.45;59.47;100643.00;4957258;28;113532;-81
2022/09/09 08:12:15;;;;;;;7.43;2.00;;;;;;;21.52;59.07;100641.44;4957212;28;113899;-82
2022/09/09 08:14:42;;;;;;;4.32;1.73;;;;;;;21.57;58.51;100641.84;4948716;28;124348;-81
2022/09/09 08:17:09;;;;;;;7.93;2.20;;;;;;;21.57;58.21;100636.47;4948562;28;123814;-82
2022/09/09 08:19:37;;;;;;;5.47;1.70;;;;;;;21.55;57.98;100643.84;4945027;28;113633;-81
2022/09/09 08:22:10;;;;;;;6.82;1.77;;;;;;;21.52;57.85;100649.53;4936309;28;113163;-81
2022/09/09 08:24:39;;;;;;;7.40;1.98;;;;;;;21.50;57.89;100654.22;4951667;28;124350;-80
2022/09/09 08:27:07;;;;;;;8.70;2.17;;;;;;;21.51;57.99;100653.22;4944806;28;121905;-81
2022/09/09 08:29:34;;;;;;;9.18;1.90;;;;;;;21.50;57.86;100659.59;4935756;28;113836;-81
2022/09/09 08:32:02;;;;;;;3.55;1.63;;;;;;;21.54;57.73;100663.69;4936506;28;113133;-81
2022/09/09 08:34:31;;;;;;;6.63;1.90;;;;;;;21.58;57.59;100665.09;4933288;28;122619;-81
2022/09/09 08:37:02;;;;;;;8.60;1.92;;;;;;;21.62;57.57;100654.03;4931549;28;124113;-81
2022/09/09 08:39:34;;;;;;;7.28;2.08;;;;;;;21.64;57.47;100658.28;4932982;28;115555;-81
2022/09/09 08:42:17;;;;;;;9.75;1.83;;;;;;;21.65;57.20;100657.31;4918816;28;114008;-80
2022/09/09 08:45:00;;;;;;;9.05;1.80;;;;;;;21.66;57.24;100660.84;4918824;28;124124;-80
2022/09/09 08:48:10;;;;;;;8.65;2.17;;;;;;;21.68;57.39;100658.84;4945735;28;123555;-80
2022/09/09 08:50:41;;;;;;;8.75;1.52;;;;;;;21.73;57.48;100656.56;4965519;28;113535;-79
2022/09/09 08:53:24;;;;;;;5.53;1.90;;;;;;;21.80;57.27;100657.69;4947541;28;113703;-79
2022/09/09 08:55:59;;;;;;;6.82;1.90;;;;;;;21.88;56.78;100660.50;4942452;28;125151;-82
2022/09/09 08:58:34;;;;;;;5.38;1.77;;;;;;;21.93;56.63;100658.22;4937898;28;123393;-79
2022/09/09 09:01:35;;;;;;;7.30;1.70;;;;;;;21.96;56.23;100666.00;4942840;28;114078;-80
2022/09/09 09:04:36;;;;;;;7.20;1.80;;;;;;;21.96;56.26;100679.50;4938222;28;113526;-80
2022/09/09 09:07:12;;;;;;;6.82;1.60;;;;;;;21.97;56.41;100670.41;4944506;28;124682;-80
2022/09/09 09:10:09;;;;;;;6.10;1.70;;;;;;;22.00;56.26;100676.47;4948558;28;122945;-80
2022/09/09 09:12:58;;;;;;;7.65;1.70;;;;;;;22.03;55.91;100678.91;4949555;28;113561;-80
2022/09/09 09:15:31;;;;;;;6.22;1.70;;;;;;;22.03;55.85;100674.34;4943545;28;113345;-80
2022/09/09 09:17:59;;;;;;;8.43;1.70;;;;;;;22.07;55.84;100674.91;4946435;28;123627;-80
2022/09/09 09:20:56;;;;;;;7.90;1.73;;;;;;;22.11;55.91;100673.59;4946018;28;122947;-79
2022/09/09 09:24:00;;;;;;;6.07;1.40;;;;;;;22.19;56.00;100672.84;4939096;28;115162;-78
2022/09/09 09:26:35;;;;;;;7.72;1.50;;;;;;;22.26;55.83;100669.44;4893854;28;113161;-79
2022/09/09 09:29:21;;;;;;;5.15;1.60;;;;;;;22.33;55.71;100669.72;4912825;28;124510;-79
2022/09/09 09:32:04;;;;;;;7.82;1.67;;;;;;;22.35;55.48;100668.56;4922336;28;122459;-80
2022/09/09 09:34:43;;;;;;;5.72;1.63;;;;;;;22.38;55.00;100680.03;4947957;28;115770;-79
2022/09/09 09:37:21;;;;;;;4.68;1.38;;;;;;;22.33;54.79;100684.03;4929632;28;113456;-80
2022/09/09 09:39:50;;;;;;;6.28;1.60;;;;;;;22.30;54.94;100676.25;4949729;28;123145;-79
2022/09/09 09:42:33;;;;;;;7.15;1.55;;;;;;;22.26;54.74;100680.25;4947605;28;124101;-78
2022/09/09 09:45:28;;;;;;;8.30;1.60;;;;;;;22.20;54.63;100675.41;4949997;28;112644;-80
2022/09/09 09:48:05;;;;;;;7.68;1.73;;;;;;;22.15;54.39;100675.00;4947298;28;112773;-79
2022/09/09 09:50:48;;;;;;;5.22;1.67;;;;;;;22.12;54.75;100675.31;4954217;28;124228;-79
2022/09/09 09:53:21;;;;;;;6.68;1.73;;;;;;;22.13;54.70;100671.59;4972993;28;123102;-79
2022/09/09 09:56:00;;;;;;;5.78;1.60;;;;;;;22.14;54.82;100670.63;4964585;28;113252;-79
2022/09/09 09:58:33;;;;;;;6.95;1.52;;;;;;;22.15;54.50;100677.69;4972039;28;112552;-78
2022/09/09 10:01:01;;;;;;;7.05;1.48;;;;;;;22.16;54.55;100684.81;4966555;28;122965;-78
2022/09/09 10:03:32;;;;;;;6.32;1.38;;;;;;;22.15;54.47;100677.69;4946108;28;123824;-78
2022/09/09 10:06:01;;;;;;;6.97;1.35;;;;;;;22.15;54.43;100680.41;4953834;28;114259;-79
2022/09/09 10:08:48;;;;;;;7.85;1.52;;;;;;;22.15;54.55;100683.09;4945045;28;113087;-78
2022/09/09 10:11:39;;;;;;;4.75;1.33;;;;;;;22.14;54.38;100687.66;4941810;28;123692;-79
2022/09/09 10:14:24;;;;;;;4.82;1.50;;;;;;;22.11;54.25;100671.78;4937810;28;122993;-78
2022/09/09 10:17:27;;;;;;;10.00;1.83;;;;;;;22.12;54.37;100678.00;4936944;28;114133;-79
2022/09/09 10:20:21;;;;;;;6.18;1.58;;;;;;;22.09;54.25;100673.75;4901471;28;114858;-79
2022/09/09 10:22:52;;;;;;;9.55;1.67;;;;;;;22.10;54.43;100674.63;4942912;28;124107;-79
2022/09/09 10:25:22;;;;;;;9.00;1.65;;;;;;;22.12;54.51;100672.63;4948753;28;123942;-79
2022/09/09 10:28:17;;;;;;;6.55;1.63;;;;;;;22.18;54.39;100672.00;4960314;28;114574;-78
2022/09/09 10:31:19;;;;;;;6.60;1.42;;;;;;;22.23;54.61;100674.28;4949234;28;114887;-79
2022/09/09 10:34:13;;;;;;;4.60;1.45;;;;;;;22.28;54.30;100682.78;4947069;28;124595;-79
2022/09/09 10:36:48;;;;;;;6.35;1.80;;;;;;;22.32;54.15;100690.44;4948033;28;123268;-79
2022/09/09 10:39:31;;;;;;;6.78;1.80;;;;;;;22.30;54.20;100681.66;4957650;28;114523;-78
2022/09/09 10:42:08;;;;;;;9.43;1.80;;;;;;;22.28;54.15;100678.25;4953065;28;113962;-79
2022/09/09 10:45:04;;;;;;;7.43;1.50;;;;;;;22.24;54.01;100676.81;4943962;28;124707;-79
2022/09/09 10:47:57;;;;;;;4.93;1.50;;;;;;;22.20;54.26;100679.97;4950026;28;124613;-78
2022/09/09 10:50:48;;;;;;;6.03;1.40;;;;;;;22.15;54.22;100683.09;4951829;28;113848;-79
2022/09/09 10:53:31;;;;;;;4.70;1.40;;;;;;;22.12;54.13;100684.25;4946089;28;113984;-80
2022/09/09 10:56:05;;;;;;;6.15;1.50;;;;;;;22.08;53.88;100687.41;4949829;28;122948;-80
2022/09/09 10:58:41;;;;;;;5.55;1.60;;;;;;;22.05;54.15;100687.69;4961248;28;124102;-79
2022/09/09 11:01:36;;;;;;;5.05;1.50;;;;;;;22.02;54.61;100687.97;4962385;28;113885;-78
2022/09/09 11:04:16;;;;;;;7.90;1.60;;;;;;;21.98;54.66;100684.72;4941267;28;114512;-79
2022/09/09 11:06:48;;;;;;;4.32;1.45;;;;;;;21.92;54.77;100686.16;4938168;28;123125;-78
2022/09/09 11:09:21;;;;;;;5.80;1.30;;;;;;;21.84;55.12;100693.28;4943920;28;123599;-78
2022/09/09 11:11:54;;;;;;;6.20;1.60;;;;;;;21.74;55.31;100696.03;4940865;28;114044;-79
2022/09/09 11:14:44;;;;;;;7.70;1.63;;;;;;;21.65;55.44;100707.66;4939759;28;113814;-79
2022/09/09 11:17:30;;;;;;;5.22;1.42;;;;;;;21.54;55.71;100701.44;4953913;28;124172;-79
2022/09/09 11:19:57;;;;;;;;;;;;;;;21.44;55.52;100716.78;4938383;28;123992;-79
2022/09/09 11:22:35;;;;;;;7.43;1.67;;;;;;;21.37;56.05;100711.06;4960006;28;114636;-79
2022/09/09 11:25:10;;;;;;;6.80;1.80;;;;;;;21.31;56.52;100700.00;4941874;28;114768;-78
2022/09/09 11:28:07;;;;;;;7.05;1.88;;;;;;;21.24;56.70;100698.88;4935485;28;123991;-78
2022/09/09 11:30:42;;;;;;;4.30;1.60;;;;;;;21.18;57.13;100701.13;4933608;28;123895;-79
2022/09/09 11:33:52;;;;;;;7.80;2.35;;;;;;;21.13;57.35;100695.31;4935231;28;114118;-78
2022/09/09 11:36:38;;;;;;;6.43;1.92;;;;;;;21.12;57.52;100695.47;4939845;28;113928;-79
2022/09/09 11:39:24;;;;;;;4.03;1.70;;;;;;;21.12;57.71;100701.72;4941825;28;124848;-78
2022/09/09 11:41:51;;;;;;;6.57;2.05;;;;;;;21.11;57.96;100700.00;4948450;28;123538;-78
2022/09/09 11:44:27;;;;;;;7.97;2.13;;;;;;;21.11;57.88;100693.75;4953075;28;114713;-79
2022/09/09 11:46:54;;;;;;;6.15;2.05;;;;;;;21.07;58.15;100693.19;4950463;28;113518;-79
2022/09/09 11:49:44;;;;;;;6.38;1.90;;;;;;;21.07;58.45;100698.59;4950713;28;123699;-79
2022/09/09 11:52:35;;;;;;;7.15;1.92;;;;;;;21.10;58.83;100692.94;4936003;28;123539;-80
2022/09/09 11:55:12;;;;;;;2.88;1.83;;;;;;;21.17;59.28;100693.19;4940789;28;114094;-79
2022/09/09 11:57:39;;;;;;;4.45;1.80;;;;;;;21.30;59.52;100698.31;4938351;28;113962;-79
2022/09/09 12:00:07;;;;;;;5.97;1.48;;;;;;;21.43;59.61;100685.38;4937265;28;123533;-78
2022/09/09 12:02:50;;;;;;;8.00;1.87;;;;;;;21.58;59.61;100681.28;4938322;28;123101;-80
2022/09/09 12:05:19;;;;;;;4.60;1.40;;;;;;;21.75;59.58;100676.97;4932105;28;113453;-79
2022/09/09 12:07:58;;;;;;;3.70;1.63;;;;;;;21.88;59.30;100682.06;4932138;28;113444;-79
2022/09/09 12:10:34;;;;;;;4.38;1.42;;;;;;;21.99;59.06;100677.50;4937627;28;123952;-79